sensor_id;sensor_type;location;lat;lon;timestamp;P1;durP1;ratioP1;P2;durP2;ratioP2
57303;SDS011;43150;50.986;18.208;2023-04-27T00:01:31;14.40;;;7.20;;
57303;SDS011;43150;50.986;18.208;2023-04-27T00:03:57;15.20;;;7.60;;
57303;SDS011;43150;50.986;18.208;2023-04-27T00:06:23;14.40;;;7.00;;
57303;SDS011;43150;50.986;18.208;2023-04-27T00:08:50;14.90;;;8.10;;
57303;SDS011;43150;50.986;18.208;2023-04-27T00:11:16;18.20;;;9.30;;
57303;SDS011;43150;50.986;18.208;2023-04-27T00:13:42;14.70;;;7.90;;
57303;SDS011;43150;50.986;18.208;2023-04-27T00:16:07;15.00;;;8.50;;
57303;SDS011;43150;50.986;18.208;2023-04-27T00:18:33;20.40;;;9.20;;
57303;SDS011;43150;50.986;18.208;2023-04-27T00:20:59;22.50;;;8.70;;
57303;SDS011;43150;50.986;18.208;2023-04-27T00:23:24;17.90;;;9.50;;
57303;SDS011;43150;50.986;18.208;2023-04-27T00:25:50;30.70;;;10.30;;
57303;SDS011;43150;50.986;18.208;2023-04-27T00:28:16;17.90;;;9.10;;
57303;SDS011;43150;50.986;18.208;2023-04-27T00:30:41;16.10;;;8.80;;
57303;SDS011;43150;50.986;18.208;2023-04-27T00:33:07;18.60;;;8.70;;
57303;SDS011;43150;50.986;18.208;2023-04-27T00:35:32;15.90;;;8.40;;
57303;SDS011;43150;50.986;18.208;2023-04-27T00:37:58;15.60;;;7.90;;
57303;SDS011;43150;50.986;18.208;2023-04-27T00:40:23;18.30;;;8.80;;
57303;SDS011;43150;50.986;18.208;2023-04-27T00:42:49;17.70;;;8.40;;
57303;SDS011;43150;50.986;18.208;2023-04-27T00:45:15;15.80;;;8.50;;
57303;SDS011;43150;50.986;18.208;2023-04-27T00:47:41;15.90;;;8.90;;
57303;SDS011;43150;50.986;18.208;2023-04-27T00:50:07;15.40;;;8.50;;
57303;SDS011;43150;50.986;18.208;2023-04-27T00:52:33;14.30;;;9.20;;
57303;SDS011;43150;50.986;18.208;2023-04-27T00:54:59;19.10;;;8.00;;
57303;SDS011;43150;50.986;18.208;2023-04-27T00:57:28;15.90;;;9.00;;
57303;SDS011;43150;50.986;18.208;2023-04-27T00:59:54;15.60;;;8.30;;
57303;SDS011;43150;50.986;18.208;2023-04-27T01:02:19;16.30;;;9.10;;
57303;SDS011;43150;50.986;18.208;2023-04-27T01:04:46;19.00;;;9.90;;
57303;SDS011;43150;50.986;18.208;2023-04-27T01:07:12;24.50;;;9.30;;
57303;SDS011;43150;50.986;18.208;2023-04-27T01:09:39;17.80;;;9.20;;
57303;SDS011;43150;50.986;18.208;2023-04-27T01:12:05;13.50;;;8.70;;
57303;SDS011;43150;50.986;18.208;2023-04-27T01:14:31;14.10;;;8.30;;
57303;SDS011;43150;50.986;18.208;2023-04-27T01:17:00;20.60;;;8.70;;
57303;SDS011;43150;50.986;18.208;2023-04-27T01:19:26;17.30;;;9.30;;
57303;SDS011;43150;50.986;18.208;2023-04-27T01:21:52;18.80;;;10.10;;
57303;SDS011;43150;50.986;18.208;2023-04-27T01:24:18;18.50;;;9.60;;
57303;SDS011;43150;50.986;18.208;2023-04-27T01:26:43;18.60;;;10.00;;
57303;SDS011;43150;50.986;18.208;2023-04-27T01:29:09;16.10;;;8.90;;
57303;SDS011;43150;50.986;18.208;2023-04-27T01:31:35;12.50;;;7.20;;
57303;SDS011;43150;50.986;18.208;2023-04-27T01:34:00;13.00;;;8.90;;
57303;SDS011;43150;50.986;18.208;2023-04-27T01:36:26;12.30;;;8.00;;
57303;SDS011;43150;50.986;18.208;2023-04-27T01:38:52;14.00;;;6.80;;
57303;SDS011;43150;50.986;18.208;2023-04-27T01:41:17;18.70;;;7.80;;
57303;SDS011;43150;50.986;18.208;2023-04-27T01:43:43;27.40;;;11.20;;
57303;SDS011;43150;50.986;18.208;2023-04-27T01:46:12;30.40;;;11.60;;
57303;SDS011;43150;50.986;18.208;2023-04-27T01:48:39;38.00;;;16.40;;
57303;SDS011;43150;50.986;18.208;2023-04-27T01:51:05;42.40;;;17.00;;
57303;SDS011;43150;50.986;18.208;2023-04-27T01:53:31;75.80;;;23.60;;
57303;SDS011;43150;50.986;18.208;2023-04-27T01:55:57;84.10;;;25.60;;
57303;SDS011;43150;50.986;18.208;2023-04-27T01:58:24;95.90;;;27.40;;
57303;SDS011;43150;50.986;18.208;2023-04-27T02:00:49;104.50;;;31.50;;
57303;SDS011;43150;50.986;18.208;2023-04-27T02:03:15;98.40;;;31.70;;
57303;SDS011;43150;50.986;18.208;2023-04-27T02:05:41;86.90;;;28.30;;
57303;SDS011;43150;50.986;18.208;2023-04-27T02:08:06;61.80;;;22.60;;
57303;SDS011;43150;50.986;18.208;2023-04-27T02:10:33;46.20;;;17.80;;
57303;SDS011;43150;50.986;18.208;2023-04-27T02:12:59;40.50;;;17.80;;
57303;SDS011;43150;50.986;18.208;2023-04-27T02:15:24;32.60;;;13.60;;
57303;SDS011;43150;50.986;18.208;2023-04-27T02:17:53;27.00;;;11.60;;
57303;SDS011;43150;50.986;18.208;2023-04-27T02:20:18;23.20;;;10.10;;
57303;SDS011;43150;50.986;18.208;2023-04-27T02:22:44;25.00;;;10.70;;
57303;SDS011;43150;50.986;18.208;2023-04-27T02:25:12;18.80;;;9.10;;
57303;SDS011;43150;50.986;18.208;2023-04-27T02:27:41;21.50;;;8.20;;
57303;SDS011;43150;50.986;18.208;2023-04-27T02:30:08;19.70;;;7.90;;
57303;SDS011;43150;50.986;18.208;2023-04-27T02:32:34;16.40;;;8.00;;
57303;SDS011;43150;50.986;18.208;2023-04-27T02:35:00;19.50;;;8.00;;
57303;SDS011;43150;50.986;18.208;2023-04-27T02:37:26;15.50;;;8.00;;
57303;SDS011;43150;50.986;18.208;2023-04-27T02:39:54;16.20;;;8.40;;
57303;SDS011;43150;50.986;18.208;2023-04-27T02:42:21;19.80;;;10.40;;
57303;SDS011;43150;50.986;18.208;2023-04-27T02:44:46;18.40;;;10.70;;
57303;SDS011;43150;50.986;18.208;2023-04-27T02:47:12;16.90;;;9.10;;
57303;SDS011;43150;50.986;18.208;2023-04-27T02:49:38;18.60;;;9.40;;
57303;SDS011;43150;50.986;18.208;2023-04-27T02:52:04;19.80;;;8.20;;
57303;SDS011;43150;50.986;18.208;2023-04-27T02:54:30;16.80;;;8.80;;
57303;SDS011;43150;50.986;18.208;2023-04-27T02:56:55;13.70;;;8.60;;
57303;SDS011;43150;50.986;18.208;2023-04-27T02:59:25;15.40;;;8.50;;
57303;SDS011;43150;50.986;18.208;2023-04-27T03:01:50;14.60;;;8.40;;
57303;SDS011;43150;50.986;18.208;2023-04-27T03:04:19;12.30;;;7.50;;
57303;SDS011;43150;50.986;18.208;2023-04-27T03:06:48;12.10;;;7.70;;
57303;SDS011;43150;50.986;18.208;2023-04-27T03:09:13;29.90;;;18.30;;
57303;SDS011;43150;50.986;18.208;2023-04-27T03:11:39;17.60;;;10.90;;
57303;SDS011;43150;50.986;18.208;2023-04-27T03:14:05;19.60;;;11.00;;
57303;SDS011;43150;50.986;18.208;2023-04-27T03:16:31;20.90;;;12.40;;
57303;SDS011;43150;50.986;18.208;2023-04-27T03:18:56;24.40;;;12.50;;
57303;SDS011;43150;50.986;18.208;2023-04-27T03:21:22;18.10;;;10.80;;
57303;SDS011;43150;50.986;18.208;2023-04-27T03:23:47;27.90;;;12.90;;
57303;SDS011;43150;50.986;18.208;2023-04-27T03:26:13;25.70;;;13.30;;
57303;SDS011;43150;50.986;18.208;2023-04-27T03:28:39;28.00;;;13.80;;
57303;SDS011;43150;50.986;18.208;2023-04-27T03:31:09;23.90;;;13.00;;
57303;SDS011;43150;50.986;18.208;2023-04-27T03:33:34;21.70;;;10.50;;
57303;SDS011;43150;50.986;18.208;2023-04-27T03:36:01;19.80;;;11.60;;
57303;SDS011;43150;50.986;18.208;2023-04-27T03:38:27;21.10;;;12.20;;
57303;SDS011;43150;50.986;18.208;2023-04-27T03:40:53;20.90;;;11.50;;
57303;SDS011;43150;50.986;18.208;2023-04-27T03:43:19;19.70;;;10.70;;
57303;SDS011;43150;50.986;18.208;2023-04-27T03:45:45;19.10;;;9.70;;
57303;SDS011;43150;50.986;18.208;2023-04-27T03:48:10;22.50;;;10.60;;
57303;SDS011;43150;50.986;18.208;2023-04-27T03:50:36;32.80;;;12.50;;
57303;SDS011;43150;50.986;18.208;2023-04-27T03:53:01;21.10;;;11.20;;
57303;SDS011;43150;50.986;18.208;2023-04-27T03:55:30;27.00;;;11.10;;
57303;SDS011;43150;50.986;18.208;2023-04-27T03:57:56;19.90;;;9.80;;
57303;SDS011;43150;50.986;18.208;2023-04-27T04:00:22;22.50;;;10.20;;
57303;SDS011;43150;50.986;18.208;2023-04-27T04:02:47;23.20;;;10.30;;
57303;SDS011;43150;50.986;18.208;2023-04-27T04:05:13;17.10;;;8.70;;
57303;SDS011;43150;50.986;18.208;2023-04-27T04:07:39;18.70;;;9.30;;
57303;SDS011;43150;50.986;18.208;2023-04-27T04:10:06;17.60;;;8.80;;
57303;SDS011;43150;50.986;18.208;2023-04-27T04:12:32;15.60;;;8.10;;
57303;SDS011;43150;50.986;18.208;2023-04-27T04:14:59;17.40;;;8.50;;
57303;SDS011;43150;50.986;18.208;2023-04-27T04:17:25;17.30;;;8.20;;
57303;SDS011;43150;50.986;18.208;2023-04-27T04:19:50;18.20;;;8.80;;
57303;SDS011;43150;50.986;18.208;2023-04-27T04:22:16;17.20;;;8.70;;
57303;SDS011;43150;50.986;18.208;2023-04-27T04:24:41;17.30;;;10.50;;
57303;SDS011;43150;50.986;18.208;2023-04-27T04:27:10;21.90;;;11.60;;
57303;SDS011;43150;50.986;18.208;2023-04-27T04:29:36;21.70;;;10.80;;
57303;SDS011;43150;50.986;18.208;2023-04-27T04:32:03;25.80;;;12.80;;
57303;SDS011;43150;50.986;18.208;2023-04-27T04:34:28;24.40;;;11.90;;
57303;SDS011;43150;50.986;18.208;2023-04-27T04:36:54;23.80;;;12.50;;
57303;SDS011;43150;50.986;18.208;2023-04-27T04:39:22;20.10;;;11.60;;
57303;SDS011;43150;50.986;18.208;2023-04-27T04:41:48;24.50;;;11.10;;
57303;SDS011;43150;50.986;18.208;2023-04-27T04:44:14;22.50;;;12.00;;
57303;SDS011;43150;50.986;18.208;2023-04-27T04:46:41;22.10;;;11.50;;
57303;SDS011;43150;50.986;18.208;2023-04-27T04:49:06;19.30;;;10.70;;
57303;SDS011;43150;50.986;18.208;2023-04-27T04:51:32;22.40;;;10.70;;
57303;SDS011;43150;50.986;18.208;2023-04-27T04:54:00;20.10;;;14.10;;
57303;SDS011;43150;50.986;18.208;2023-04-27T04:56:26;20.10;;;10.60;;
57303;SDS011;43150;50.986;18.208;2023-04-27T04:58:51;19.40;;;9.00;;
57303;SDS011;43150;50.986;18.208;2023-04-27T05:01:17;20.40;;;12.40;;
57303;SDS011;43150;50.986;18.208;2023-04-27T05:03:42;14.60;;;11.50;;
57303;SDS011;43150;50.986;18.208;2023-04-27T05:06:08;18.80;;;11.90;;
57303;SDS011;43150;50.986;18.208;2023-04-27T05:08:34;15.60;;;11.10;;
57303;SDS011;43150;50.986;18.208;2023-04-27T05:11:00;16.20;;;11.50;;
57303;SDS011;43150;50.986;18.208;2023-04-27T05:13:25;17.70;;;11.40;;
57303;SDS011;43150;50.986;18.208;2023-04-27T05:15:51;13.80;;;11.00;;
57303;SDS011;43150;50.986;18.208;2023-04-27T05:18:17;17.90;;;11.90;;
57303;SDS011;43150;50.986;18.208;2023-04-27T05:20:43;16.90;;;12.20;;
57303;SDS011;43150;50.986;18.208;2023-04-27T05:23:08;17.50;;;12.60;;
57303;SDS011;43150;50.986;18.208;2023-04-27T05:25:34;14.40;;;11.00;;
57303;SDS011;43150;50.986;18.208;2023-04-27T05:28:09;16.40;;;10.30;;
57303;SDS011;43150;50.986;18.208;2023-04-27T05:30:35;14.90;;;10.50;;
57303;SDS011;43150;50.986;18.208;2023-04-27T05:33:04;14.40;;;10.30;;
57303;SDS011;43150;50.986;18.208;2023-04-27T05:35:30;11.90;;;9.20;;
57303;SDS011;43150;50.986;18.208;2023-04-27T05:37:56;13.60;;;9.30;;
57303;SDS011;43150;50.986;18.208;2023-04-27T05:40:22;14.10;;;9.00;;
57303;SDS011;43150;50.986;18.208;2023-04-27T05:42:47;15.20;;;8.60;;
57303;SDS011;43150;50.986;18.208;2023-04-27T05:45:13;12.80;;;8.30;;
57303;SDS011;43150;50.986;18.208;2023-04-27T05:47:39;12.20;;;7.90;;
57303;SDS011;43150;50.986;18.208;2023-04-27T05:50:04;11.40;;;7.40;;
57303;SDS011;43150;50.986;18.208;2023-04-27T05:52:30;9.80;;;7.50;;
57303;SDS011;43150;50.986;18.208;2023-04-27T05:54:56;11.70;;;8.20;;
57303;SDS011;43150;50.986;18.208;2023-04-27T05:57:22;13.10;;;7.50;;
57303;SDS011;43150;50.986;18.208;2023-04-27T05:59:48;11.40;;;6.90;;
57303;SDS011;43150;50.986;18.208;2023-04-27T06:02:14;14.90;;;7.70;;
57303;SDS011;43150;50.986;18.208;2023-04-27T06:04:40;12.00;;;7.70;;
57303;SDS011;43150;50.986;18.208;2023-04-27T06:07:09;12.40;;;8.40;;
57303;SDS011;43150;50.986;18.208;2023-04-27T06:09:35;11.00;;;7.50;;
57303;SDS011;43150;50.986;18.208;2023-04-27T06:12:01;12.60;;;7.90;;
57303;SDS011;43150;50.986;18.208;2023-04-27T06:14:28;10.90;;;7.30;;
57303;SDS011;43150;50.986;18.208;2023-04-27T06:16:54;9.50;;;7.10;;
57303;SDS011;43150;50.986;18.208;2023-04-27T06:19:20;12.10;;;7.20;;
57303;SDS011;43150;50.986;18.208;2023-04-27T06:21:45;11.60;;;7.10;;
57303;SDS011;43150;50.986;18.208;2023-04-27T06:24:11;10.70;;;7.40;;
57303;SDS011;43150;50.986;18.208;2023-04-27T06:26:36;8.10;;;6.50;;
57303;SDS011;43150;50.986;18.208;2023-04-27T06:29:03;11.60;;;7.00;;
57303;SDS011;43150;50.986;18.208;2023-04-27T06:31:28;11.00;;;7.10;;
57303;SDS011;43150;50.986;18.208;2023-04-27T06:33:55;8.70;;;6.10;;
57303;SDS011;43150;50.986;18.208;2023-04-27T06:36:20;11.70;;;6.80;;
57303;SDS011;43150;50.986;18.208;2023-04-27T06:38:46;11.10;;;8.20;;
57303;SDS011;43150;50.986;18.208;2023-04-27T06:41:12;9.10;;;6.10;;
57303;SDS011;43150;50.986;18.208;2023-04-27T06:43:38;9.80;;;6.70;;
57303;SDS011;43150;50.986;18.208;2023-04-27T06:46:03;10.00;;;6.60;;
57303;SDS011;43150;50.986;18.208;2023-04-27T06:48:29;8.80;;;6.40;;
57303;SDS011;43150;50.986;18.208;2023-04-27T06:50:56;11.20;;;6.50;;
57303;SDS011;43150;50.986;18.208;2023-04-27T06:53:22;7.60;;;5.90;;
57303;SDS011;43150;50.986;18.208;2023-04-27T06:55:47;10.10;;;5.90;;
57303;SDS011;43150;50.986;18.208;2023-04-27T06:58:22;9.20;;;6.10;;
57303;SDS011;43150;50.986;18.208;2023-04-27T07:00:47;9.40;;;5.40;;
57303;SDS011;43150;50.986;18.208;2023-04-27T07:06:06;7.80;;;5.50;;
57303;SDS011;43150;50.986;18.208;2023-04-27T07:08:31;7.60;;;5.00;;
57303;SDS011;43150;50.986;18.208;2023-04-27T07:10:57;9.20;;;5.30;;
57303;SDS011;43150;50.986;18.208;2023-04-27T07:13:22;7.00;;;5.00;;
57303;SDS011;43150;50.986;18.208;2023-04-27T07:15:53;6.70;;;4.60;;
57303;SDS011;43150;50.986;18.208;2023-04-27T07:18:19;8.40;;;4.80;;
57303;SDS011;43150;50.986;18.208;2023-04-27T07:20:44;6.50;;;4.80;;
57303;SDS011;43150;50.986;18.208;2023-04-27T07:23:11;7.10;;;4.80;;
57303;SDS011;43150;50.986;18.208;2023-04-27T07:25:36;8.00;;;5.10;;
57303;SDS011;43150;50.986;18.208;2023-04-27T07:28:04;6.90;;;4.90;;
57303;SDS011;43150;50.986;18.208;2023-04-27T07:30:35;6.10;;;4.20;;
57303;SDS011;43150;50.986;18.208;2023-04-27T07:33:01;7.20;;;4.70;;
57303;SDS011;43150;50.986;18.208;2023-04-27T07:35:27;8.00;;;5.20;;
57303;SDS011;43150;50.986;18.208;2023-04-27T07:37:52;13.60;;;12.40;;
57303;SDS011;43150;50.986;18.208;2023-04-27T07:40:18;11.70;;;5.60;;
57303;SDS011;43150;50.986;18.208;2023-04-27T07:42:43;5.30;;;4.00;;
57303;SDS011;43150;50.986;18.208;2023-04-27T07:45:10;8.50;;;4.50;;
57303;SDS011;43150;50.986;18.208;2023-04-27T07:47:42;7.60;;;4.90;;
57303;SDS011;43150;50.986;18.208;2023-04-27T07:50:10;7.00;;;3.80;;
57303;SDS011;43150;50.986;18.208;2023-04-27T07:52:35;6.30;;;3.30;;
57303;SDS011;43150;50.986;18.208;2023-04-27T07:55:05;8.90;;;4.50;;
57303;SDS011;43150;50.986;18.208;2023-04-27T07:57:31;6.10;;;3.50;;
57303;SDS011;43150;50.986;18.208;2023-04-27T07:59:56;9.50;;;4.20;;
57303;SDS011;43150;50.986;18.208;2023-04-27T08:02:22;6.60;;;3.70;;
57303;SDS011;43150;50.986;18.208;2023-04-27T08:04:48;5.50;;;3.50;;
57303;SDS011;43150;50.986;18.208;2023-04-27T08:07:16;5.80;;;3.50;;
57303;SDS011;43150;50.986;18.208;2023-04-27T08:09:42;6.60;;;2.70;;
57303;SDS011;43150;50.986;18.208;2023-04-27T08:12:08;8.80;;;3.10;;
57303;SDS011;43150;50.986;18.208;2023-04-27T08:14:34;7.60;;;3.40;;
57303;SDS011;43150;50.986;18.208;2023-04-27T08:17:01;9.30;;;3.60;;
57303;SDS011;43150;50.986;18.208;2023-04-27T08:19:26;5.40;;;3.00;;
57303;SDS011;43150;50.986;18.208;2023-04-27T08:21:52;6.90;;;4.30;;
57303;SDS011;43150;50.986;18.208;2023-04-27T08:24:20;6.00;;;3.70;;
57303;SDS011;43150;50.986;18.208;2023-04-27T08:26:46;6.20;;;4.50;;
57303;SDS011;43150;50.986;18.208;2023-04-27T08:29:12;12.30;;;5.10;;
57303;SDS011;43150;50.986;18.208;2023-04-27T08:31:37;5.90;;;4.40;;
57303;SDS011;43150;50.986;18.208;2023-04-27T08:34:03;6.60;;;3.80;;
57303;SDS011;43150;50.986;18.208;2023-04-27T08:36:29;6.00;;;3.30;;
57303;SDS011;43150;50.986;18.208;2023-04-27T08:38:55;5.00;;;3.20;;
57303;SDS011;43150;50.986;18.208;2023-04-27T08:41:21;4.80;;;3.40;;
57303;SDS011;43150;50.986;18.208;2023-04-27T08:43:47;5.10;;;3.40;;
57303;SDS011;43150;50.986;18.208;2023-04-27T08:46:18;4.60;;;2.70;;
57303;SDS011;43150;50.986;18.208;2023-04-27T08:48:44;4.60;;;2.40;;
57303;SDS011;43150;50.986;18.208;2023-04-27T08:51:10;4.50;;;3.10;;
57303;SDS011;43150;50.986;18.208;2023-04-27T08:53:38;5.30;;;3.80;;
57303;SDS011;43150;50.986;18.208;2023-04-27T08:56:13;7.50;;;3.60;;
57303;SDS011;43150;50.986;18.208;2023-04-27T08:58:39;6.50;;;3.80;;
57303;SDS011;43150;50.986;18.208;2023-04-27T09:01:05;8.70;;;3.60;;
57303;SDS011;43150;50.986;18.208;2023-04-27T09:03:34;7.30;;;4.20;;
57303;SDS011;43150;50.986;18.208;2023-04-27T09:06:00;5.60;;;3.70;;
57303;SDS011;43150;50.986;18.208;2023-04-27T09:08:26;6.00;;;3.60;;
57303;SDS011;43150;50.986;18.208;2023-04-27T09:10:52;4.20;;;3.20;;
57303;SDS011;43150;50.986;18.208;2023-04-27T09:13:19;5.60;;;3.20;;
57303;SDS011;43150;50.986;18.208;2023-04-27T09:15:49;3.80;;;2.90;;
57303;SDS011;43150;50.986;18.208;2023-04-27T09:18:19;13.40;;;3.90;;
57303;SDS011;43150;50.986;18.208;2023-04-27T09:20:48;6.10;;;2.90;;
57303;SDS011;43150;50.986;18.208;2023-04-27T09:23:24;3.30;;;2.20;;
57303;SDS011;43150;50.986;18.208;2023-04-27T09:25:56;4.80;;;2.40;;
57303;SDS011;43150;50.986;18.208;2023-04-27T09:28:23;3.90;;;2.00;;
57303;SDS011;43150;50.986;18.208;2023-04-27T09:30:57;5.90;;;2.40;;
57303;SDS011;43150;50.986;18.208;2023-04-27T09:33:27;5.00;;;2.10;;
57303;SDS011;43150;50.986;18.208;2023-04-27T09:35:57;6.30;;;2.10;;
57303;SDS011;43150;50.986;18.208;2023-04-27T09:38:23;4.60;;;2.00;;
57303;SDS011;43150;50.986;18.208;2023-04-27T09:40:49;5.10;;;2.60;;
57303;SDS011;43150;50.986;18.208;2023-04-27T09:43:16;4.50;;;2.10;;
57303;SDS011;43150;50.986;18.208;2023-04-27T09:45:41;5.70;;;2.20;;
57303;SDS011;43150;50.986;18.208;2023-04-27T09:48:08;4.70;;;2.20;;
57303;SDS011;43150;50.986;18.208;2023-04-27T09:50:34;3.80;;;1.90;;
57303;SDS011;43150;50.986;18.208;2023-04-27T09:53:01;2.60;;;1.70;;
57303;SDS011;43150;50.986;18.208;2023-04-27T09:55:28;3.70;;;2.00;;
57303;SDS011;43150;50.986;18.208;2023-04-27T10:03:32;3.70;;;1.60;;
57303;SDS011;43150;50.986;18.208;2023-04-27T10:08:34;3.20;;;1.80;;
57303;SDS011;43150;50.986;18.208;2023-04-27T10:11:00;4.40;;;2.20;;
57303;SDS011;43150;50.986;18.208;2023-04-27T10:13:25;5.50;;;2.40;;
57303;SDS011;43150;50.986;18.208;2023-04-27T10:15:52;4.00;;;2.00;;
57303;SDS011;43150;50.986;18.208;2023-04-27T10:18:27;4.70;;;2.20;;
57303;SDS011;43150;50.986;18.208;2023-04-27T10:20:53;3.20;;;1.80;;
57303;SDS011;43150;50.986;18.208;2023-04-27T10:23:22;4.70;;;2.30;;
57303;SDS011;43150;50.986;18.208;2023-04-27T10:25:56;5.80;;;2.60;;
57303;SDS011;43150;50.986;18.208;2023-04-27T10:28:36;4.50;;;2.60;;
57303;SDS011;43150;50.986;18.208;2023-04-27T10:31:08;3.60;;;2.10;;
57303;SDS011;43150;50.986;18.208;2023-04-27T10:33:40;4.20;;;2.50;;
57303;SDS011;43150;50.986;18.208;2023-04-27T10:36:06;4.30;;;1.90;;
57303;SDS011;43150;50.986;18.208;2023-04-27T10:38:39;5.50;;;1.80;;
57303;SDS011;43150;50.986;18.208;2023-04-27T10:41:12;3.70;;;1.50;;
57303;SDS011;43150;50.986;18.208;2023-04-27T10:43:37;2.90;;;1.30;;
57303;SDS011;43150;50.986;18.208;2023-04-27T10:46:10;3.90;;;1.60;;
57303;SDS011;43150;50.986;18.208;2023-04-27T10:48:39;3.70;;;2.00;;
57303;SDS011;43150;50.986;18.208;2023-04-27T10:51:05;3.30;;;2.50;;
57303;SDS011;43150;50.986;18.208;2023-04-27T10:53:35;3.80;;;1.70;;
57303;SDS011;43150;50.986;18.208;2023-04-27T10:56:01;4.20;;;1.90;;
57303;SDS011;43150;50.986;18.208;2023-04-27T10:58:27;5.10;;;2.10;;
57303;SDS011;43150;50.986;18.208;2023-04-27T11:00:52;3.60;;;2.20;;
57303;SDS011;43150;50.986;18.208;2023-04-27T11:03:20;4.80;;;2.80;;
57303;SDS011;43150;50.986;18.208;2023-04-27T11:05:46;4.10;;;2.40;;
57303;SDS011;43150;50.986;18.208;2023-04-27T11:08:16;5.40;;;2.50;;
57303;SDS011;43150;50.986;18.208;2023-04-27T11:10:42;11.10;;;3.20;;
57303;SDS011;43150;50.986;18.208;2023-04-27T11:13:18;5.30;;;3.10;;
57303;SDS011;43150;50.986;18.208;2023-04-27T11:18:13;5.60;;;2.80;;
57303;SDS011;43150;50.986;18.208;2023-04-27T11:20:40;5.20;;;3.20;;
57303;SDS011;43150;50.986;18.208;2023-04-27T11:23:06;6.50;;;3.20;;
57303;SDS011;43150;50.986;18.208;2023-04-27T11:25:32;5.80;;;3.20;;
57303;SDS011;43150;50.986;18.208;2023-04-27T11:27:57;6.30;;;3.50;;
57303;SDS011;43150;50.986;18.208;2023-04-27T11:30:24;3.70;;;3.10;;
57303;SDS011;43150;50.986;18.208;2023-04-27T11:32:50;4.90;;;3.40;;
57303;SDS011;43150;50.986;18.208;2023-04-27T11:35:16;5.10;;;2.70;;
57303;SDS011;43150;50.986;18.208;2023-04-27T11:37:42;5.10;;;3.30;;
57303;SDS011;43150;50.986;18.208;2023-04-27T11:40:08;4.40;;;2.80;;
57303;SDS011;43150;50.986;18.208;2023-04-27T11:42:35;5.80;;;3.20;;
57303;SDS011;43150;50.986;18.208;2023-04-27T11:45:01;5.90;;;3.40;;
57303;SDS011;43150;50.986;18.208;2023-04-27T11:47:30;5.10;;;3.00;;
57303;SDS011;43150;50.986;18.208;2023-04-27T11:50:01;6.00;;;2.90;;
57303;SDS011;43150;50.986;18.208;2023-04-27T11:54:56;5.80;;;3.00;;
57303;SDS011;43150;50.986;18.208;2023-04-27T11:57:25;9.90;;;3.40;;
57303;SDS011;43150;50.986;18.208;2023-04-27T11:59:55;6.00;;;3.20;;
57303;SDS011;43150;50.986;18.208;2023-04-27T12:02:21;10.20;;;3.40;;
57303;SDS011;43150;50.986;18.208;2023-04-27T12:04:50;6.40;;;3.20;;
57303;SDS011;43150;50.986;18.208;2023-04-27T12:07:16;4.40;;;2.90;;
57303;SDS011;43150;50.986;18.208;2023-04-27T12:09:41;5.10;;;2.80;;
57303;SDS011;43150;50.986;18.208;2023-04-27T12:12:08;4.80;;;2.70;;
57303;SDS011;43150;50.986;18.208;2023-04-27T12:14:33;4.20;;;2.20;;
57303;SDS011;43150;50.986;18.208;2023-04-27T12:16:59;2.70;;;2.30;;
57303;SDS011;43150;50.986;18.208;2023-04-27T12:19:24;6.40;;;2.40;;
57303;SDS011;43150;50.986;18.208;2023-04-27T12:21:50;5.20;;;2.40;;
57303;SDS011;43150;50.986;18.208;2023-04-27T12:24:16;3.80;;;2.30;;
57303;SDS011;43150;50.986;18.208;2023-04-27T12:26:42;3.60;;;1.70;;
57303;SDS011;43150;50.986;18.208;2023-04-27T12:29:07;4.80;;;1.90;;
57303;SDS011;43150;50.986;18.208;2023-04-27T12:31:33;3.90;;;2.30;;
57303;SDS011;43150;50.986;18.208;2023-04-27T12:33:59;4.20;;;2.10;;
57303;SDS011;43150;50.986;18.208;2023-04-27T12:36:25;3.70;;;1.90;;
57303;SDS011;43150;50.986;18.208;2023-04-27T12:38:56;3.30;;;2.10;;
57303;SDS011;43150;50.986;18.208;2023-04-27T12:41:22;4.60;;;2.00;;
57303;SDS011;43150;50.986;18.208;2023-04-27T12:43:48;12.30;;;2.70;;
57303;SDS011;43150;50.986;18.208;2023-04-27T12:46:14;16.90;;;3.20;;
57303;SDS011;43150;50.986;18.208;2023-04-27T12:48:40;6.90;;;3.20;;
57303;SDS011;43150;50.986;18.208;2023-04-27T12:51:06;4.50;;;2.40;;
57303;SDS011;43150;50.986;18.208;2023-04-27T12:53:32;6.90;;;2.40;;
57303;SDS011;43150;50.986;18.208;2023-04-27T12:55:58;3.80;;;2.00;;
57303;SDS011;43150;50.986;18.208;2023-04-27T12:58:26;5.00;;;2.20;;
57303;SDS011;43150;50.986;18.208;2023-04-27T13:00:54;10.50;;;3.50;;
57303;SDS011;43150;50.986;18.208;2023-04-27T13:03:22;4.10;;;2.40;;
57303;SDS011;43150;50.986;18.208;2023-04-27T13:05:48;3.30;;;2.40;;
57303;SDS011;43150;50.986;18.208;2023-04-27T13:08:13;5.90;;;2.60;;
57303;SDS011;43150;50.986;18.208;2023-04-27T13:10:43;3.90;;;2.50;;
57303;SDS011;43150;50.986;18.208;2023-04-27T13:13:08;3.60;;;2.20;;
57303;SDS011;43150;50.986;18.208;2023-04-27T13:15:34;4.20;;;2.50;;
57303;SDS011;43150;50.986;18.208;2023-04-27T13:18:01;3.00;;;2.00;;
57303;SDS011;43150;50.986;18.208;2023-04-27T13:20:29;4.60;;;3.50;;
57303;SDS011;43150;50.986;18.208;2023-04-27T13:22:55;3.50;;;2.60;;
57303;SDS011;43150;50.986;18.208;2023-04-27T13:25:21;5.30;;;2.50;;
57303;SDS011;43150;50.986;18.208;2023-04-27T13:27:48;4.60;;;3.30;;
57303;SDS011;43150;50.986;18.208;2023-04-27T13:30:14;3.60;;;2.40;;
57303;SDS011;43150;50.986;18.208;2023-04-27T13:32:39;5.30;;;2.60;;
57303;SDS011;43150;50.986;18.208;2023-04-27T13:35:05;5.40;;;2.30;;
57303;SDS011;43150;50.986;18.208;2023-04-27T13:37:33;3.20;;;2.40;;
57303;SDS011;43150;50.986;18.208;2023-04-27T13:39:58;4.90;;;2.80;;
57303;SDS011;43150;50.986;18.208;2023-04-27T13:42:24;5.30;;;2.60;;
57303;SDS011;43150;50.986;18.208;2023-04-27T13:44:54;4.20;;;2.20;;
57303;SDS011;43150;50.986;18.208;2023-04-27T13:47:20;3.70;;;2.80;;
57303;SDS011;43150;50.986;18.208;2023-04-27T13:49:46;4.50;;;2.90;;
57303;SDS011;43150;50.986;18.208;2023-04-27T13:52:11;9.00;;;3.90;;
57303;SDS011;43150;50.986;18.208;2023-04-27T13:54:38;5.90;;;3.40;;
57303;SDS011;43150;50.986;18.208;2023-04-27T13:57:11;5.50;;;4.00;;
57303;SDS011;43150;50.986;18.208;2023-04-27T13:59:36;8.40;;;3.90;;
57303;SDS011;43150;50.986;18.208;2023-04-27T14:02:02;7.40;;;3.70;;
57303;SDS011;43150;50.986;18.208;2023-04-27T14:04:27;7.00;;;4.00;;
57303;SDS011;43150;50.986;18.208;2023-04-27T14:06:53;7.50;;;4.20;;
57303;SDS011;43150;50.986;18.208;2023-04-27T14:09:19;5.20;;;3.30;;
57303;SDS011;43150;50.986;18.208;2023-04-27T14:11:44;6.90;;;3.60;;
57303;SDS011;43150;50.986;18.208;2023-04-27T14:14:11;5.00;;;3.50;;
57303;SDS011;43150;50.986;18.208;2023-04-27T14:16:36;5.20;;;3.30;;
57303;SDS011;43150;50.986;18.208;2023-04-27T14:19:02;7.20;;;3.20;;
57303;SDS011;43150;50.986;18.208;2023-04-27T14:21:28;6.10;;;3.70;;
57303;SDS011;43150;50.986;18.208;2023-04-27T14:23:53;4.20;;;3.60;;
57303;SDS011;43150;50.986;18.208;2023-04-27T14:26:19;5.30;;;3.30;;
57303;SDS011;43150;50.986;18.208;2023-04-27T14:28:44;4.90;;;3.20;;
57303;SDS011;43150;50.986;18.208;2023-04-27T14:31:10;3.90;;;3.40;;
57303;SDS011;43150;50.986;18.208;2023-04-27T14:33:35;4.40;;;3.30;;
57303;SDS011;43150;50.986;18.208;2023-04-27T14:36:01;6.60;;;3.40;;
57303;SDS011;43150;50.986;18.208;2023-04-27T14:38:27;11.80;;;3.80;;